»·PEaware :: N20791 KHQM-S23

N20791 :: KHQM-S23

FLIGHT INFORMATION

Flight Status: Arrived
Operator: Privately registered:
United States
More flights under this callsign
Pilot: Russell T. (852)
Aircraft: CESSNA 182 SKYLANE
(C182)
More flights by this aircraft type
Origin: KHQM Bowerman
United States
Destination: S23 Ione Mun
United States
More flights between these airports :: More routes between these airports
Route:
File this flight plan on PilotEdge
Remarks: wonku tcm eln mwh geg V2 diann s23
Altitude:
(Current/Filed)
105,002,500ft
Speed:
(Current/Filed)
120kts
Departed: 06-May-20 06:53 PM
Arrived: 06-May-20 09:29 PM
Distance/Time
Traveled:
283nm/2:36
Distance/Time
To Go:
Arrived

Flight Plot

Page will automatically refresh every two minutes.

Flight plan parsing failed; only flown route is shown


Map Options




Map Legend


Flown Route
Filed Route
Departure Airport
Arrival Airport
Navaid (VOR, NDB)
Fix

Horizontal Profiles

Position Reports

Time Latitude Longitude Heading Altitude Ground
Speed
06-May-20 18:49 46.972365 -123.927038 259 21ft 0kts
06-May-20 18:50 46.972365 -123.927040 259 21ft 0kts
06-May-20 18:51 46.972364 -123.927041 259 21ft 0kts
06-May-20 18:52 46.971166 -123.940052 269 293ft 76kts
06-May-20 18:53 46.979229 -123.966417 4 1295ft 88kts
06-May-20 18:54 47.000412 -123.948359 48 2292ft 92kts
06-May-20 18:55 47.012240 -123.912094 66 3306ft 101kts
06-May-20 18:56 47.022667 -123.874210 66 4307ft 98kts
06-May-20 18:57 47.032584 -123.838046 68 5285ft 92kts
06-May-20 18:58 47.041836 -123.804012 71 6256ft 87kts
06-May-20 18:59 47.050370 -123.772474 70 7222ft 80kts
06-May-20 19:00 47.058443 -123.742645 67 8122ft 76kts
06-May-20 19:01 47.065974 -123.714907 64 9022ft 68kts
06-May-20 19:02 47.073512 -123.687092 64 9712ft 80kts
06-May-20 19:03 47.082203 -123.654454 62 10325ft 89kts
06-May-20 19:04 47.091228 -123.620983 60 10999ft 86kts
06-May-20 19:05 47.099968 -123.588505 59 11665ft 83kts
06-May-20 19:06 47.109355 -123.559962 40 12365ft 69kts
06-May-20 19:07 47.128907 -123.527788 44 11738ft 144kts
06-May-20 19:08 47.149742 -123.478930 46 11494ft 132kts
06-May-20 19:09 47.154598 -123.425967 84 11508ft 138kts
06-May-20 19:10 47.152762 -123.369721 84 11501ft 139kts
06-May-20 19:11 47.151038 -123.312418 83 11500ft 141kts
06-May-20 19:12 47.149371 -123.254865 83 11500ft 141kts
06-May-20 19:13 47.147700 -123.197107 83 11500ft 141kts
06-May-20 19:14 47.145846 -123.139436 84 11500ft 141kts
06-May-20 19:15 47.143907 -123.081750 84 11499ft 141kts
06-May-20 19:16 47.141943 -123.024178 84 11500ft 141kts
06-May-20 19:17 47.139937 -122.966277 84 11500ft 141kts
06-May-20 19:18 47.137922 -122.908631 84 11500ft 141kts
06-May-20 19:19 47.135824 -122.850906 85 11500ft 142kts
06-May-20 19:20 47.133324 -122.792915 85 11500ft 141kts
06-May-20 19:21 47.131133 -122.735121 85 11500ft 142kts
06-May-20 19:22 47.128968 -122.677232 85 11501ft 141kts
06-May-20 19:23 47.126791 -122.619408 85 11499ft 142kts
06-May-20 19:24 47.124580 -122.561467 85 11500ft 142kts
06-May-20 19:25 47.122347 -122.503603 85 11500ft 142kts
06-May-20 19:26 47.120202 -122.445765 84 11500ft 141kts
06-May-20 19:27 47.117988 -122.387884 85 11500ft 142kts
06-May-20 19:28 47.115682 -122.330085 85 11500ft 142kts
06-May-20 19:29 47.113322 -122.272210 85 11500ft 141kts
06-May-20 19:30 47.110938 -122.214364 85 11501ft 142kts
06-May-20 19:31 47.108510 -122.156514 85 11500ft 142kts
06-May-20 19:32 47.106073 -122.098709 85 11499ft 142kts
06-May-20 19:33 47.103618 -122.040947 85 11500ft 141kts
06-May-20 19:34 47.101127 -121.983178 85 11500ft 141kts
06-May-20 19:35 47.098603 -121.925423 85 11500ft 142kts
06-May-20 19:36 47.096039 -121.867528 85 11500ft 142kts
06-May-20 19:37 47.093441 -121.809609 85 11500ft 142kts
06-May-20 19:38 47.090828 -121.751667 85 11500ft 142kts
06-May-20 19:39 47.088165 -121.693713 85 11500ft 142kts
06-May-20 19:40 47.085489 -121.635789 85 11499ft 142kts
06-May-20 19:41 47.082794 -121.578078 85 11499ft 142kts
06-May-20 19:42 47.080038 -121.520121 85 11500ft 142kts
06-May-20 19:43 47.077380 -121.462274 84 11500ft 142kts
06-May-20 19:44 47.074758 -121.404428 85 11500ft 142kts
06-May-20 19:45 47.071905 -121.346614 85 11500ft 142kts
06-May-20 19:46 47.069039 -121.288555 85 11500ft 142kts
06-May-20 19:47 47.066134 -121.230591 85 11500ft 142kts
06-May-20 19:48 47.063219 -121.172794 85 11500ft 142kts
06-May-20 19:49 47.060268 -121.114822 85 11500ft 142kts
06-May-20 19:50 47.057286 -121.056872 85 11500ft 142kts
06-May-20 19:51 47.054365 -120.998826 85 11500ft 142kts
06-May-20 19:52 47.051272 -120.940931 86 11500ft 142kts
06-May-20 19:53 47.048142 -120.882966 86 11500ft 142kts
06-May-20 19:54 47.045002 -120.825018 86 11500ft 142kts
06-May-20 19:55 47.041800 -120.767039 86 11500ft 142kts
06-May-20 19:57 47.038565 -120.708936 86 11500ft 142kts
06-May-20 19:58 47.035314 -120.650706 86 11501ft 142kts
06-May-20 19:59 47.032055 -120.592699 86 11499ft 143kts
06-May-20 20:00 47.028869 -120.534737 86 11500ft 142kts
06-May-20 20:01 47.025574 -120.476585 86 11500ft 142kts
06-May-20 20:02 47.030771 -120.421219 69 11501ft 136kts
06-May-20 20:03 47.039869 -120.367050 69 11500ft 137kts
06-May-20 20:04 47.048949 -120.312744 69 11500ft 137kts
06-May-20 20:05 47.058033 -120.258441 69 11500ft 137kts
06-May-20 20:06 47.067083 -120.204195 69 11500ft 137kts
06-May-20 20:07 47.076161 -120.149880 69 11500ft 137kts
06-May-20 20:08 47.085201 -120.095557 69 11500ft 137kts
06-May-20 20:09 47.094174 -120.041132 69 11500ft 137kts
06-May-20 20:10 47.103014 -119.986766 69 11500ft 137kts
06-May-20 20:11 47.111916 -119.932386 69 11500ft 137kts
06-May-20 20:12 47.120802 -119.877968 69 11500ft 137kts
06-May-20 20:13 47.129678 -119.823565 69 11500ft 137kts
06-May-20 20:14 47.138504 -119.769145 69 11500ft 137kts
06-May-20 20:14 47.145830 -119.723912 69 11500ft 137kts
06-May-20 20:16 47.156116 -119.660291 69 11500ft 137kts
06-May-20 20:16 47.163410 -119.614945 69 11500ft 137kts
06-May-20 20:17 47.172157 -119.560438 69 11500ft 137kts
06-May-20 20:19 47.182331 -119.496757 70 11500ft 137kts
06-May-20 20:19 47.189592 -119.451119 70 11500ft 137kts
06-May-20 20:20 47.198231 -119.396639 70 11500ft 137kts
06-May-20 20:21 47.206886 -119.341948 70 11500ft 137kts
06-May-20 20:22 47.216620 -119.287967 64 11500ft 135kts
06-May-20 20:23 47.228536 -119.235315 65 11500ft 135kts
06-May-20 20:24 47.240098 -119.182383 65 11500ft 136kts
06-May-20 20:25 47.251848 -119.129429 65 11500ft 135kts
06-May-20 20:26 47.263388 -119.076537 65 11500ft 136kts
06-May-20 20:27 47.274852 -119.023434 65 11500ft 136kts
06-May-20 20:28 47.286215 -118.970427 65 11500ft 136kts
06-May-20 20:29 47.297604 -118.917269 65 11500ft 136kts
06-May-20 20:30 47.308953 -118.864197 65 11500ft 136kts
06-May-20 20:31 47.320322 -118.810890 65 11500ft 136kts
06-May-20 20:32 47.331582 -118.757790 65 11500ft 136kts
06-May-20 20:33 47.342880 -118.704351 66 11500ft 136kts
06-May-20 20:34 47.353467 -118.654426 65 11500ft 136kts
06-May-20 20:35 47.361438 -118.617639 71 11512ft 144kts
06-May-20 20:36 47.373689 -118.559895 72 11507ft 149kts
06-May-20 20:37 47.385949 -118.500803 71 11505ft 150kts
06-May-20 20:38 47.398435 -118.441865 71 11506ft 150kts
06-May-20 20:39 47.410794 -118.382865 71 11506ft 150kts
06-May-20 20:40 47.423128 -118.323684 72 11506ft 150kts
06-May-20 20:41 47.435380 -118.264702 72 11505ft 150kts
06-May-20 20:42 47.447643 -118.205525 72 11506ft 150kts
06-May-20 20:43 47.459861 -118.146291 72 11507ft 150kts
06-May-20 20:44 47.472017 -118.087207 72 11505ft 150kts
06-May-20 20:45 47.484184 -118.027961 72 11506ft 150kts
06-May-20 20:46 47.496347 -117.968503 72 11506ft 150kts
06-May-20 20:47 47.508443 -117.909182 72 11506ft 150kts
06-May-20 20:48 47.520530 -117.849819 72 11506ft 150kts
06-May-20 20:49 47.532540 -117.790549 72 11506ft 150kts
06-May-20 20:50 47.544551 -117.731128 72 11506ft 150kts
06-May-20 20:51 47.556540 -117.671643 72 11506ft 150kts
06-May-20 20:52 47.575714 -117.619600 23 11501ft 150kts
06-May-20 20:53 47.613668 -117.593269 25 11508ft 150kts
06-May-20 20:54 47.651226 -117.565553 25 11506ft 150kts
06-May-20 20:55 47.688513 -117.536934 28 11506ft 151kts
06-May-20 20:56 47.725704 -117.507964 26 11506ft 151kts
06-May-20 20:57 47.763175 -117.480020 27 11506ft 151kts
06-May-20 20:58 47.800661 -117.451749 25 11506ft 151kts
06-May-20 20:59 47.838330 -117.423947 25 11506ft 151kts
06-May-20 21:00 47.878540 -117.394096 26 10725ft 171kts
06-May-20 21:01 47.920553 -117.362594 26 9685ft 148kts
06-May-20 21:02 47.949365 -117.340605 26 8673ft 110kts
06-May-20 21:03 47.976486 -117.319951 26 7681ft 108kts
06-May-20 21:04 47.997747 -117.303846 26 7464ft 51kts
06-May-20 21:05 48.012762 -117.283597 45 7147ft 108kts
06-May-20 21:06 48.043287 -117.267039 18 7150ft 122kts
06-May-20 21:07 48.074555 -117.246227 26 7146ft 123kts
06-May-20 21:08 48.104608 -117.223421 26 7138ft 116kts
06-May-20 21:09 48.133114 -117.201712 26 7144ft 114kts
06-May-20 21:10 48.161650 -117.180169 20 7144ft 114kts
06-May-20 21:11 48.192290 -117.189936 343 7152ft 114kts
06-May-20 21:12 48.223023 -117.203106 343 7146ft 114kts
06-May-20 21:13 48.253707 -117.216198 343 7146ft 114kts
06-May-20 21:14 48.284331 -117.229387 343 7145ft 114kts
06-May-20 21:15 48.317900 -117.243864 343 6509ft 137kts
06-May-20 21:16 48.355074 -117.259904 343 5610ft 139kts
06-May-20 21:17 48.392273 -117.276015 343 4708ft 139kts
06-May-20 21:18 48.426078 -117.290570 343 4684ft 106kts
06-May-20 21:19 48.456134 -117.303541 343 4803ft 108kts
06-May-20 21:20 48.485759 -117.316375 343 4907ft 115kts
06-May-20 21:21 48.516782 -117.329824 343 4907ft 116kts
06-May-20 21:22 48.549801 -117.344173 343 4454ft 135kts
06-May-20 21:23 48.585541 -117.350453 0 4182ft 112kts
06-May-20 21:24 48.617056 -117.357206 346 4206ft 117kts
06-May-20 21:25 48.651760 -117.370811 343 3515ft 137kts
06-May-20 21:26 48.681600 -117.396518 327 2633ft 104kts
06-May-20 21:27 48.703515 -117.411694 350 2110ft 51kts
06-May-20 21:28 48.706471 -117.412445 351 2110ft 2kts
06-May-20 21:29 48.707270 -117.412951 77 2110ft 0kts
06-May-20 21:30 48.707270 -117.412949 77 2110ft 0kts
06-May-20 21:31 48.707270 -117.412946 77 2110ft 0kts
06-May-20 21:32 48.707271 -117.412944 77 2110ft 0kts
06-May-20 21:33 48.707271 -117.412942 77 2110ft 0kts
06-May-20 21:34 48.707271 -117.412940 77 2110ft 0kts
06-May-20 21:35 48.707272 -117.412938 77 2110ft 0kts
06-May-20 21:36 48.707272 -117.412936 77 2110ft 0kts
06-May-20 21:37 48.707272 -117.412934 77 2110ft 0kts
06-May-20 21:38 48.707273 -117.412931 77 2110ft 0kts
06-May-20 21:39 48.707273 -117.412929 77 2110ft 0kts
06-May-20 21:40 48.707273 -117.412928 77 2110ft 0kts

Navigation Log

Ident Type
Flight plan parsing failed, navigation log unavailable